East Jenkins, Kentucky
Current Conditions -  °F | °C
As of 7:15 AM on Monday 26 Jan 2015 (Local Time) from KLNP Reporting Station
Overcast Overcast  
Wind Chill: 36°   Ceiling: 700
Heat Index: 36°   Visibility: 10mi
Dew Point: 36°   Wind: 3mph
Humidity: 100%   Direction: 270°W
Pressure: 29.63"   Gusts: NA
Location:  37.1955°N, 82.6325°W
Report Text: KLNP 261215Z AUTO 27003KT 10SM BKN007 OVC013 02/02 A2963 RMK AO2
Loading
Personal Weather Stations






























Interactive Weather Map New forecast layout! Learn more

10-Day Weather Forecast

Advertisements
Track Severe Weather on mobile